createdAt,value
2023-03-11T00:01:15.162Z,100892.78
2023-03-11T00:03:41.746Z,100884.16
2023-03-11T00:06:08.303Z,100892.91
2023-03-11T00:08:34.859Z,100890.38
2023-03-11T00:11:02.049Z,100903.47
2023-03-11T00:13:29.662Z,100900.94
2023-03-11T00:15:56.928Z,100908.84
2023-03-11T00:18:27.251Z,100906.31
2023-03-11T00:20:55.874Z,100911.59
2023-03-11T00:23:23.035Z,100914.25
2023-03-11T00:25:49.597Z,100921.31
2023-03-11T00:28:16.690Z,100930.19
2023-03-11T00:30:45.454Z,100927.53
2023-03-11T00:33:14.073Z,100931.13
2023-03-11T00:35:42.235Z,100928.59
2023-03-11T00:38:11.863Z,100939.16
2023-03-11T00:40:39.399Z,100934.84
2023-03-11T00:43:05.984Z,100942.75
2023-03-11T00:45:32.902Z,100956.03
2023-03-11T00:47:59.565Z,100959.53
2023-03-11T00:50:32.265Z,100952.56
2023-03-11T00:52:59.299Z,100957.84
2023-03-11T00:55:28.965Z,100960.63
2023-03-11T00:57:58.155Z,100963.25
2023-03-11T01:00:26.233Z,100967.69
2023-03-11T01:02:54.573Z,100971.28
2023-03-11T01:05:23.906Z,100966.00
2023-03-11T01:07:50.440Z,100972.22
2023-03-11T01:10:17.603Z,100974.03
2023-03-11T01:12:44.408Z,100977.63
2023-03-11T01:15:19.100Z,100978.56
2023-03-11T01:17:46.182Z,100973.28
2023-03-11T01:20:13.761Z,100980.38
2023-03-11T01:22:40.336Z,100976.03
2023-03-11T01:25:07.227Z,100979.63
2023-03-11T01:27:33.895Z,100984.91
2023-03-11T01:30:00.431Z,100985.75
2023-03-11T01:32:27.080Z,100983.22
2023-03-11T01:34:53.609Z,100991.97
2023-03-11T01:37:20.493Z,101000.84
2023-03-11T01:39:47.918Z,100998.19
2023-03-11T01:42:14.504Z,100993.19
2023-03-11T01:44:41.036Z,101012.44
2023-03-11T01:47:10.659Z,101004.69
2023-03-11T01:49:41.986Z,101008.25
2023-03-11T01:52:09.724Z,101008.38
2023-03-11T01:54:39.204Z,101004.16
2023-03-11T01:57:09.652Z,100999.84
2023-03-11T01:59:48.740Z,100994.56
2023-03-11T02:02:18.915Z,101009.53
2023-03-11T02:04:46.480Z,101009.53
2023-03-11T02:07:14.812Z,101008.69
2023-03-11T02:09:41.664Z,101007.00
2023-03-11T02:12:11.450Z,101012.28
2023-03-11T02:14:43.427Z,101010.59
2023-03-11T02:17:10.309Z,101012.41
2023-03-11T02:19:59.343Z,101014.19
2023-03-11T02:22:28.355Z,101017.78
2023-03-11T02:25:11.384Z,101029.31
2023-03-11T02:27:41.750Z,101021.41
2023-03-11T02:30:13.087Z,101017.06
2023-03-11T02:32:41.063Z,101014.44
2023-03-11T02:35:07.838Z,101014.66
2023-03-11T02:37:34.486Z,101011.28
2023-03-11T02:40:22.904Z,101021.63
2023-03-11T02:42:56.407Z,100999.28
2023-03-11T02:45:25.786Z,101008.75
2023-03-11T02:47:54.622Z,101008.97
2023-03-11T02:50:21.541Z,101016.78
2023-03-11T02:52:49.693Z,101023.50
2023-03-11T02:55:18.119Z,101011.38
2023-03-11T02:57:45.322Z,101011.28
2023-03-11T03:00:15.181Z,101007.19
2023-03-11T03:02:43.366Z,101005.50
2023-03-11T03:05:11.472Z,101014.88
2023-03-11T03:07:38.105Z,101011.59
2023-03-11T03:10:06.924Z,101011.97
2023-03-11T03:12:33.510Z,101030.91
2023-03-11T03:15:00.199Z,101028.47
2023-03-11T03:17:26.847Z,101031.13
2023-03-11T03:19:53.412Z,101032.81
2023-03-11T03:22:20.043Z,101037.97
2023-03-11T03:24:46.785Z,101040.59
2023-03-11T03:27:13.349Z,101044.09
2023-03-11T03:29:39.877Z,101042.66
2023-03-11T03:32:06.801Z,101047.91
2023-03-11T03:34:33.609Z,101056.66
2023-03-11T03:37:00.185Z,101056.97
2023-03-11T03:39:28.735Z,101070.66
2023-03-11T03:41:56.572Z,101072.47
2023-03-11T03:44:23.132Z,101070.78
2023-03-11T03:46:49.704Z,101074.38
2023-03-11T03:49:16.448Z,101068.47
2023-03-11T03:51:43.079Z,101085.88
2023-03-11T03:54:09.668Z,101087.75
2023-03-11T03:56:36.242Z,101089.47
2023-03-11T03:59:02.919Z,101092.09
2023-03-11T04:01:29.529Z,101099.91
2023-03-11T04:03:56.087Z,101103.38
2023-03-11T04:06:25.395Z,101105.44
2023-03-11T04:08:53.032Z,101099.44
2023-03-11T04:11:19.984Z,101109.66
2023-03-11T04:13:46.856Z,101105.34
2023-03-11T04:16:17.581Z,101103.22
2023-03-11T04:18:44.483Z,101102.41
2023-03-11T04:21:11.317Z,101106.56
2023-03-11T04:23:37.892Z,101109.09
2023-03-11T04:26:04.739Z,101105.75
2023-03-11T04:28:31.459Z,101111.53
2023-03-11T04:30:58.163Z,101122.81
2023-03-11T04:33:25.116Z,101106.38
2023-03-11T04:35:51.851Z,101118.38
2023-03-11T04:38:18.420Z,101113.13
2023-03-11T04:40:44.955Z,101094.47
2023-03-11T04:43:11.524Z,101120.91
2023-03-11T04:45:39.279Z,101119.13
2023-03-11T04:48:06.122Z,101130.31
2023-03-11T04:50:32.778Z,101124.28
2023-03-11T04:52:59.364Z,101129.31
2023-03-11T04:55:26.197Z,101124.06
2023-03-11T04:57:52.723Z,101132.69
2023-03-11T05:00:24.701Z,101128.63
2023-03-11T05:02:51.521Z,101137.03
2023-03-11T05:05:21.179Z,101133.53
2023-03-11T05:07:49.294Z,101132.69
2023-03-11T05:10:22.421Z,101133.66
2023-03-11T05:12:50.090Z,101122.16
2023-03-11T05:15:17.302Z,101120.88
2023-03-11T05:17:43.916Z,101118.56
2023-03-11T05:20:11.266Z,101128.06
2023-03-11T05:22:38.327Z,101144.16
2023-03-11T05:25:05.753Z,101142.72
2023-03-11T05:27:32.588Z,101132.28
2023-03-11T05:29:59.156Z,101146.69
2023-03-11T05:32:25.737Z,101142.63
2023-03-11T05:34:52.661Z,101144.16
2023-03-11T05:37:19.339Z,101143.47
2023-03-11T05:39:45.868Z,101144.41
2023-03-11T05:42:12.543Z,101157.25
2023-03-11T05:44:39.259Z,101162.53
2023-03-11T05:47:05.942Z,101154.72
2023-03-11T05:49:32.630Z,101162.63
2023-03-11T05:51:59.269Z,101161.78
2023-03-11T05:54:26.164Z,101160.94
2023-03-11T05:56:52.806Z,101167.06
2023-03-11T05:59:19.452Z,101161.50
2023-03-11T06:01:46.125Z,101175.22
2023-03-11T06:04:12.956Z,101169.00
2023-03-11T06:06:41.588Z,101178.81
2023-03-11T06:09:12.853Z,101188.28
2023-03-11T06:11:39.445Z,101184.28
2023-03-11T06:14:06.165Z,101196.31
2023-03-11T06:16:32.953Z,101187.66
2023-03-11T06:19:02.536Z,101194.72
2023-03-11T06:21:29.156Z,101199.78
2023-03-11T06:23:55.860Z,101195.78
2023-03-11T06:26:23.540Z,101202.75
2023-03-11T06:28:51.795Z,101199.91
2023-03-11T06:31:28.790Z,101205.19
2023-03-11T06:33:59.362Z,101200.22
2023-03-11T06:36:26.462Z,101200.00
2023-03-11T06:38:54.698Z,101207.72
2023-03-11T06:41:21.447Z,101208.03
2023-03-11T06:43:48.013Z,101203.81
2023-03-11T06:46:20.402Z,101213.09
2023-03-11T06:48:47.430Z,101209.72
2023-03-11T06:51:14.223Z,101220.78
2023-03-11T06:53:40.857Z,101214.78
2023-03-11T06:56:10.201Z,101223.19
2023-03-11T06:58:39.110Z,101217.19
2023-03-11T07:01:08.643Z,101220.44
2023-03-11T07:03:35.219Z,101212.63
2023-03-11T07:06:02.245Z,101244.16
2023-03-11T07:08:30.308Z,101243.84
2023-03-11T07:11:07.418Z,101249.66
2023-03-11T07:13:34.589Z,101245.94
2023-03-11T07:16:05.264Z,101253.81
2023-03-11T07:18:32.787Z,101255.91
2023-03-11T07:20:59.380Z,101255.97
2023-03-11T07:23:25.933Z,101247.84
2023-03-11T07:25:52.909Z,101256.88
2023-03-11T07:28:21.342Z,101261.47
2023-03-11T07:30:48.680Z,101270.03
2023-03-11T07:33:16.007Z,101261.81
2023-03-11T07:35:42.892Z,101269.25
2023-03-11T07:38:09.640Z,101274.09
2023-03-11T07:40:36.703Z,101261.97
2023-03-11T07:43:03.483Z,101270.16
2023-03-11T07:45:30.026Z,101257.91
2023-03-11T07:47:56.585Z,101264.84
2023-03-11T07:50:23.191Z,101262.09
2023-03-11T07:52:49.941Z,101269.47
2023-03-11T07:55:16.546Z,101266.94
2023-03-11T07:57:43.263Z,101271.75
2023-03-11T08:00:11.051Z,101269.84
2023-03-11T08:02:37.713Z,101281.88
2023-03-11T08:05:04.498Z,101292.81
2023-03-11T08:07:32.342Z,101288.28
2023-03-11T08:09:59.367Z,101287.31
2023-03-11T08:12:25.942Z,101286.25
2023-03-11T08:14:52.492Z,101296.38
2023-03-11T08:17:19.095Z,101306.59
2023-03-11T08:19:45.711Z,101303.72
2023-03-11T08:22:12.277Z,101312.84
2023-03-11T08:24:38.863Z,101302.28
2023-03-11T08:27:05.751Z,101310.81
2023-03-11T08:29:32.314Z,101304.69
2023-03-11T08:31:58.885Z,101311.22
2023-03-11T08:34:27.624Z,101316.38
2023-03-11T08:36:54.436Z,101311.56
2023-03-11T08:39:21.002Z,101318.31
2023-03-11T08:41:47.553Z,101319.28
2023-03-11T08:44:14.128Z,101311.34
2023-03-11T08:46:40.799Z,101313.53
2023-03-11T08:49:07.542Z,101318.94
2023-03-11T08:51:35.301Z,101316.19
2023-03-11T08:54:03.004Z,101326.41
2023-03-11T08:56:29.875Z,101333.75
2023-03-11T08:58:56.536Z,101326.66
2023-03-11T09:01:23.793Z,101338.00
2023-03-11T09:03:50.417Z,101328.72
2023-03-11T09:06:17.980Z,101338.84
2023-03-11T09:08:45.413Z,101343.28
2023-03-11T09:11:13.667Z,101341.88
2023-03-11T09:13:41.492Z,101344.84
2023-03-11T09:16:12.504Z,101346.88
2023-03-11T09:18:39.104Z,101342.66
2023-03-11T09:21:06.205Z,101344.44
2023-03-11T09:23:32.803Z,101348.31
2023-03-11T09:25:59.338Z,101341.66
2023-03-11T09:28:25.920Z,101344.94
2023-03-11T09:30:52.459Z,101343.69
2023-03-11T09:33:19.342Z,101349.97
2023-03-11T09:35:46.180Z,101342.84
2023-03-11T09:38:12.854Z,101345.25
2023-03-11T09:40:55.897Z,101346.34
2023-03-11T09:43:28.786Z,101352.59
2023-03-11T09:46:22.483Z,101347.47
2023-03-11T09:49:05.994Z,101349.38
2023-03-11T09:51:51.382Z,101347.69
2023-03-11T09:54:18.535Z,101344.56
2023-03-11T09:56:45.336Z,101349.41
2023-03-11T09:59:17.320Z,101353.88
2023-03-11T10:01:47.012Z,101357.00
2023-03-11T10:04:20.755Z,101360.38
2023-03-11T10:06:48.099Z,101351.09
2023-03-11T10:09:30.648Z,101357.16
2023-03-11T10:12:08.171Z,101345.59
2023-03-11T10:14:49.015Z,101356.44
2023-03-11T10:17:47.798Z,101360.38
2023-03-11T10:20:20.116Z,101359.06
2023-03-11T10:23:12.722Z,101355.94
2023-03-11T10:25:59.876Z,101356.28
2023-03-11T10:28:51.992Z,101352.06
2023-03-11T10:31:20.091Z,101358.44
2023-03-11T10:33:48.861Z,101358.53
2023-03-11T10:36:24.126Z,101357.09
2023-03-11T10:38:52.893Z,101359.84
2023-03-11T10:41:42.159Z,101360.09
2023-03-11T10:44:24.474Z,101364.66
2023-03-11T10:46:51.060Z,101362.25
2023-03-11T10:49:18.515Z,101369.97
2023-03-11T10:51:48.321Z,101376.22
2023-03-11T10:54:30.471Z,101371.88
2023-03-11T10:57:03.335Z,101373.69
2023-03-11T10:59:45.233Z,101359.22
2023-03-11T11:02:32.417Z,101371.13
2023-03-11T11:05:32.812Z,101375.59
2023-03-11T11:08:17.090Z,101373.91
2023-03-11T11:10:51.799Z,101385.31
2023-03-11T11:13:21.839Z,101385.31
2023-03-11T11:15:54.986Z,101383.53
2023-03-11T11:19:10.820Z,101383.63
2023-03-11T11:21:52.399Z,101386.28
2023-03-11T11:24:24.274Z,101390.63
2023-03-11T11:27:19.178Z,101375.34
2023-03-11T11:29:46.765Z,101391.34
2023-03-11T11:32:19.388Z,101389.31
2023-03-11T11:34:58.950Z,101391.84
2023-03-11T11:37:31.996Z,101390.03
2023-03-11T11:40:17.028Z,101396.03
2023-03-11T11:43:12.872Z,101387.38
2023-03-11T11:46:02.199Z,101382.59
2023-03-11T11:48:50.134Z,101390.19
2023-03-11T11:51:33.244Z,101380.56
2023-03-11T11:54:09.220Z,101376.84
2023-03-11T11:56:35.607Z,101386.59
2023-03-11T11:59:02.249Z,101383.94
2023-03-11T12:01:44.953Z,101375.88
2023-03-11T12:04:12.204Z,101369.59
2023-03-11T12:06:54.323Z,101371.28
2023-03-11T12:09:30.401Z,101368.78
2023-03-11T12:12:05.855Z,101372.88
2023-03-11T12:14:38.523Z,101364.31
2023-03-11T12:17:05.457Z,101366.88
2023-03-11T12:19:43.961Z,101368.56
2023-03-11T12:22:32.549Z,101377.44
2023-03-11T12:25:22.072Z,101370.44
2023-03-11T12:27:57.570Z,101369.00
2023-03-11T12:30:29.472Z,101365.28
2023-03-11T12:33:01.691Z,101366.94
2023-03-11T12:35:30.952Z,101350.09
2023-03-11T12:37:57.579Z,101374.88
2023-03-11T12:40:42.534Z,101359.00
2023-03-11T12:43:33.603Z,101367.94
2023-03-11T12:46:02.057Z,101370.59
2023-03-11T12:48:45.481Z,101369.59
2023-03-11T12:51:27.059Z,101366.94
2023-03-11T12:53:55.189Z,101369.84
2023-03-11T12:56:30.758Z,101363.34
2023-03-11T12:59:06.272Z,101373.09
2023-03-11T13:02:14.151Z,101366.88
2023-03-11T13:04:59.215Z,101355.41
2023-03-11T13:07:28.694Z,101365.91
2023-03-11T13:10:07.191Z,101355.94
2023-03-11T13:12:49.601Z,101350.28
2023-03-11T13:15:19.875Z,101358.69
2023-03-11T13:17:59.843Z,101358.34
2023-03-11T13:20:41.736Z,101359.81
2023-03-11T13:23:14.411Z,101362.06
2023-03-11T13:25:47.173Z,101353.88
2023-03-11T13:28:27.717Z,101356.31
2023-03-11T13:31:24.505Z,101357.88
2023-03-11T13:34:17.426Z,101354.13
2023-03-11T13:36:50.088Z,101358.22
2023-03-11T13:39:32.245Z,101364.97
2023-03-11T13:41:58.851Z,101359.66
2023-03-11T13:44:41.087Z,101349.31
2023-03-11T13:47:13.944Z,101360.00
2023-03-11T13:49:43.604Z,101350.13
2023-03-11T13:52:16.924Z,101361.22
2023-03-11T13:54:53.204Z,101359.41
2023-03-11T13:57:31.779Z,101358.31
2023-03-11T14:00:17.870Z,101364.31
2023-03-11T14:03:09.591Z,101378.78
2023-03-11T14:05:40.040Z,101375.16
2023-03-11T14:08:24.128Z,101362.03
2023-03-11T14:11:11.786Z,101369.34
2023-03-11T14:13:46.623Z,101369.63
2023-03-11T14:16:44.125Z,101376.22
2023-03-11T14:19:16.419Z,101364.91
2023-03-11T14:21:44.480Z,101371.88
2023-03-11T14:24:23.843Z,101380.09
2023-03-11T14:26:55.240Z,101381.91
2023-03-11T14:29:38.284Z,101386.22
2023-03-11T14:32:34.346Z,101395.00
2023-03-11T14:35:01.331Z,101389.97
2023-03-11T14:37:32.518Z,101402.28
2023-03-11T14:39:59.161Z,101368.09
2023-03-11T14:42:29.819Z,101386.63
2023-03-11T14:45:07.841Z,101383.72
2023-03-11T14:47:49.006Z,101386.34
2023-03-11T14:50:21.958Z,101403.50
2023-03-11T14:53:17.764Z,101396.00
2023-03-11T14:55:51.101Z,101388.56
2023-03-11T14:58:34.830Z,101392.91
2023-03-11T15:01:42.867Z,101397.09
2023-03-11T15:04:13.382Z,101398.66
2023-03-11T15:06:45.862Z,101398.66
2023-03-11T15:09:14.871Z,101404.81
2023-03-11T15:11:55.750Z,101401.31
2023-03-11T15:14:35.615Z,101403.13
2023-03-11T15:17:39.223Z,101400.69
2023-03-11T15:20:37.714Z,101404.19
2023-03-11T15:23:06.260Z,101400.84
2023-03-11T15:25:35.121Z,101400.47
2023-03-11T15:28:27.137Z,101398.66
2023-03-11T15:31:17.641Z,101405.28
2023-03-11T15:33:44.614Z,101397.34
2023-03-11T15:36:39.523Z,101393.47
2023-03-11T15:39:13.788Z,101389.00
2023-03-11T15:42:10.050Z,101384.44
2023-03-11T15:44:51.607Z,101395.75
2023-03-11T15:47:23.297Z,101383.47
2023-03-11T15:49:50.484Z,101382.38
2023-03-11T15:52:19.284Z,101383.97
2023-03-11T15:54:55.059Z,101385.03
2023-03-11T15:57:28.239Z,101378.66
2023-03-11T15:59:57.248Z,101390.72
2023-03-11T16:02:29.968Z,101388.06
2023-03-11T16:04:57.986Z,101388.06
2023-03-11T16:07:38.621Z,101382.88
2023-03-11T16:10:07.909Z,101387.91
2023-03-11T16:12:34.536Z,101383.97
2023-03-11T16:15:01.576Z,101398.66
2023-03-11T16:17:39.531Z,101385.41
2023-03-11T16:20:13.582Z,101382.88
2023-03-11T16:22:40.207Z,101382.75
2023-03-11T16:25:09.913Z,101373.97
2023-03-11T16:27:36.705Z,101382.59
2023-03-11T16:30:03.777Z,101391.41
2023-03-11T16:32:30.378Z,101386.09
2023-03-11T16:34:57.126Z,101383.72
2023-03-11T16:37:23.703Z,101378.41
2023-03-11T16:39:50.396Z,101393.09
2023-03-11T16:42:22.956Z,101395.63
2023-03-11T16:44:50.141Z,101387.78
2023-03-11T16:47:16.870Z,101394.78
2023-03-11T16:49:43.550Z,101376.00
2023-03-11T16:52:10.249Z,101393.81
2023-03-11T16:54:36.924Z,101392.00
2023-03-11T16:57:03.580Z,101397.44
2023-03-11T16:59:30.218Z,101392.25
2023-03-11T17:01:56.871Z,101401.03
2023-03-11T17:04:23.520Z,101403.44
2023-03-11T17:06:50.110Z,101400.31
2023-03-11T17:09:16.662Z,101398.38
2023-03-11T17:11:43.242Z,101399.94
2023-03-11T17:14:16.195Z,101393.09
2023-03-11T17:16:45.218Z,101395.00
2023-03-11T17:19:11.906Z,101390.56
2023-03-11T17:21:38.447Z,101398.50
2023-03-11T17:24:05.368Z,101397.09
2023-03-11T17:26:31.911Z,101402.84
2023-03-11T17:28:59.199Z,101405.50
2023-03-11T17:31:25.863Z,101403.97
2023-03-11T17:33:52.440Z,101414.28
2023-03-11T17:36:19.501Z,101417.78
2023-03-11T17:38:47.084Z,101416.09
2023-03-11T17:41:16.176Z,101404.44
2023-03-11T17:43:43.154Z,101422.50
2023-03-11T17:46:12.369Z,101423.59
2023-03-11T17:48:38.931Z,101429.00
2023-03-11T17:51:11.144Z,101433.13
2023-03-11T17:53:40.210Z,101437.06
2023-03-11T17:56:07.600Z,101451.78
2023-03-11T17:58:35.246Z,101441.78
2023-03-11T18:01:09.419Z,101442.63
2023-03-11T18:03:36.012Z,101451.41
2023-03-11T18:06:05.843Z,101446.84
2023-03-11T18:08:34.136Z,101446.09
2023-03-11T18:11:22.069Z,101442.50
2023-03-11T18:13:48.998Z,101435.75
2023-03-11T18:16:18.963Z,101439.25
2023-03-11T18:18:46.356Z,101453.09
2023-03-11T18:21:15.848Z,101451.28
2023-03-11T18:23:42.956Z,101456.72
2023-03-11T18:26:12.183Z,101451.66
2023-03-11T18:28:39.657Z,101444.91
2023-03-11T18:31:11.788Z,101454.19
2023-03-11T18:33:39.395Z,101461.28
2023-03-11T18:36:15.069Z,101456.22
2023-03-11T18:38:41.751Z,101440.22
2023-03-11T18:41:08.300Z,101450.34
2023-03-11T18:43:35.112Z,101453.94
2023-03-11T18:46:02.366Z,101457.31
2023-03-11T18:48:28.950Z,101447.94
2023-03-11T18:50:55.685Z,101451.28
2023-03-11T18:53:24.873Z,101447.44
2023-03-11T18:55:52.784Z,101454.91
2023-03-11T18:58:19.969Z,101453.22
2023-03-11T19:00:46.591Z,101446.34
2023-03-11T19:03:13.504Z,101453.34
2023-03-11T19:05:40.108Z,101442.97
2023-03-11T19:08:06.757Z,101445.75
2023-03-11T19:10:33.330Z,101450.19
2023-03-11T19:12:59.870Z,101449.84
2023-03-11T19:15:26.460Z,101437.78
2023-03-11T19:18:05.987Z,101448.28
2023-03-11T19:20:34.512Z,101445.50
2023-03-11T19:23:01.159Z,101447.44
2023-03-11T19:25:28.313Z,101441.16
2023-03-11T19:27:56.531Z,101447.44
2023-03-11T19:30:23.367Z,101440.44
2023-03-11T19:32:53.239Z,101445.16
2023-03-11T19:35:21.582Z,101437.31
2023-03-11T19:37:49.217Z,101433.94
2023-03-11T19:40:17.462Z,101444.91
2023-03-11T19:42:44.383Z,101433.00
2023-03-11T19:45:11.483Z,101441.56
2023-03-11T19:47:38.695Z,101443.34
2023-03-11T19:50:06.426Z,101436.47
2023-03-11T19:52:35.594Z,101440.94
2023-03-11T19:55:02.426Z,101440.09
2023-03-11T19:57:29.081Z,101439.38
2023-03-11T19:59:56.007Z,101448.88
2023-03-11T20:02:22.616Z,101452.59
2023-03-11T20:04:49.356Z,101455.25
2023-03-11T20:07:15.970Z,101445.63
2023-03-11T20:09:42.592Z,101449.97
2023-03-11T20:12:09.491Z,101451.75
2023-03-11T20:14:36.040Z,101455.38
2023-03-11T20:17:02.684Z,101446.97
2023-03-11T20:19:29.255Z,101450.19
2023-03-11T20:21:55.936Z,101451.16
2023-03-11T20:24:22.550Z,101452.00
2023-03-11T20:26:51.205Z,101447.91
2023-03-11T20:29:18.067Z,101454.75
2023-03-11T20:31:44.741Z,101458.25
2023-03-11T20:34:12.378Z,101454.66
2023-03-11T20:36:39.059Z,101448.75
2023-03-11T20:39:07.950Z,101454.41
2023-03-11T20:41:38.974Z,101449.84
2023-03-11T20:44:08.131Z,101454.91
2023-03-11T20:46:35.534Z,101450.56
2023-03-11T20:49:02.758Z,101460.31
2023-03-11T20:51:29.738Z,101453.44
2023-03-11T20:53:56.394Z,101448.38
2023-03-11T20:56:25.223Z,101444.66
2023-03-11T20:58:54.837Z,101451.88
2023-03-11T21:01:39.518Z,101452.84
2023-03-11T21:04:06.242Z,101452.84
2023-03-11T21:06:35.737Z,101450.06
2023-03-11T21:09:05.299Z,101448.25
2023-03-11T21:11:32.616Z,101450.19
2023-03-11T21:13:59.562Z,101447.66
2023-03-11T21:16:27.080Z,101444.28
2023-03-11T21:18:54.365Z,101440.94
2023-03-11T21:21:21.082Z,101429.72
2023-03-11T21:23:48.868Z,101432.38
2023-03-11T21:26:16.616Z,101443.31
2023-03-11T21:28:46.743Z,101447.66
2023-03-11T21:31:19.933Z,101444.16
2023-03-11T21:33:47.628Z,101438.88
2023-03-11T21:36:17.651Z,101434.66
2023-03-11T21:38:45.688Z,101422.00
2023-03-11T21:41:15.601Z,101432.03
2023-03-11T21:43:43.163Z,101439.13
2023-03-11T21:46:13.515Z,101428.53
2023-03-11T21:48:40.392Z,101438.28
2023-03-11T21:51:07.813Z,101430.69
2023-03-11T21:53:35.056Z,101432.25
2023-03-11T21:56:03.724Z,101429.59
2023-03-11T21:58:30.806Z,101421.66
2023-03-11T22:00:57.489Z,101424.19
2023-03-11T22:03:24.299Z,101409.25
2023-03-11T22:06:00.423Z,101431.41
2023-03-11T22:08:27.609Z,101428.75
2023-03-11T22:10:54.785Z,101433.22
2023-03-11T22:13:21.751Z,101432.38
2023-03-11T22:15:48.659Z,101424.44
2023-03-11T22:18:15.371Z,101420.19
2023-03-11T22:20:42.955Z,101409.38
2023-03-11T22:23:10.323Z,101418.41
2023-03-11T22:25:37.511Z,101424.88
2023-03-11T22:28:04.464Z,101405.38
2023-03-11T22:30:31.331Z,101426.56
2023-03-11T22:32:57.984Z,101418.00
2023-03-11T22:35:24.635Z,101416.22
2023-03-11T22:37:51.188Z,101412.97
2023-03-11T22:40:17.879Z,101427.91
2023-03-11T22:42:44.438Z,101416.59
2023-03-11T22:45:11.396Z,101407.19
2023-03-11T22:47:38.056Z,101409.22
2023-03-11T22:50:04.985Z,101413.78
2023-03-11T22:52:31.569Z,101412.31
2023-03-11T22:54:58.124Z,101406.19
2023-03-11T22:57:24.705Z,101409.66
2023-03-11T22:59:51.357Z,101404.59
2023-03-11T23:02:19.515Z,101395.19
2023-03-11T23:04:46.211Z,101415.06
2023-03-11T23:07:13.055Z,101401.59
2023-03-11T23:09:39.788Z,101394.84
2023-03-11T23:12:07.006Z,101400.03
2023-03-11T23:14:44.682Z,101404.09
2023-03-11T23:17:12.370Z,101400.13
2023-03-11T23:19:39.085Z,101394.72
2023-03-11T23:22:06.976Z,101390.41
2023-03-11T23:24:34.077Z,101391.47
2023-03-11T23:27:01.028Z,101393.03
2023-03-11T23:29:27.568Z,101391.47
2023-03-11T23:31:54.120Z,101394.13
2023-03-11T23:34:20.683Z,101377.63
2023-03-11T23:36:47.454Z,101381.00
2023-03-11T23:39:13.983Z,101377.50
2023-03-11T23:41:40.523Z,101367.28
2023-03-11T23:44:07.064Z,101368.09
2023-03-11T23:46:33.774Z,101372.44
2023-03-11T23:49:01.224Z,101358.75
2023-03-11T23:51:28.277Z,101353.78
2023-03-11T23:53:54.897Z,101364.03
2023-03-11T23:56:21.507Z,101364.16
2023-03-11T23:58:48.180Z,101357.16
